Hancock, Maryland
Current Conditions -  °F | °C
As of 2:53 AM on Saturday 25 Oct 2014 (Local Time) from KMRB Reporting Station
Clear Clear  
Wind Chill: 49°   Ceiling: Unl
Heat Index: 49°   Visibility: 10mi
Dew Point: 35°   Wind: 0mph
Humidity: 59%   Direction: NA
Pressure: 29.98"   Gusts: NA
Location:  39.7°N, 78.18°W
Report Text: KMRB 250653Z AUTO 00000KT 10SM CLR 09/02 A2998 RMK AO2 SLP150 T00940017 TSNO
Loading
Personal Weather Stations






























Interactive Weather Map New forecast layout! Learn more

10-Day Weather Forecast

Advertisements
Track Severe Weather on mobile